sensor_id;sensor_type;location;lat;lon;timestamp;pressure;altitude;pressure_sealevel;temperature;humidity
41078;BME280;26823;42.662;23.352;2022-09-21T00:02:11;94924.88;;;8.86;74.92
41078;BME280;26823;42.662;23.352;2022-09-21T00:04:37;94923.44;;;8.68;74.74
41078;BME280;26823;42.662;23.352;2022-09-21T00:07:02;94931.56;;;8.73;74.74
41078;BME280;26823;42.662;23.352;2022-09-21T00:09:27;94929.38;;;8.70;72.86
41078;BME280;26823;42.662;23.352;2022-09-21T00:11:53;94928.56;;;8.64;72.82
41078;BME280;26823;42.662;23.352;2022-09-21T00:14:18;94931.13;;;8.43;73.34
41078;BME280;26823;42.662;23.352;2022-09-21T00:16:43;94928.75;;;8.52;73.46
41078;BME280;26823;42.662;23.352;2022-09-21T00:19:09;94930.41;;;8.53;73.37
41078;BME280;26823;42.662;23.352;2022-09-21T00:21:34;94928.75;;;8.52;73.72
41078;BME280;26823;42.662;23.352;2022-09-21T00:24:02;94932.28;;;8.53;73.65
41078;BME280;26823;42.662;23.352;2022-09-21T00:26:27;94934.44;;;8.56;73.50
41078;BME280;26823;42.662;23.352;2022-09-21T00:28:57;94927.63;;;8.43;73.36
41078;BME280;26823;42.662;23.352;2022-09-21T00:31:23;94923.59;;;8.45;74.03
41078;BME280;26823;42.662;23.352;2022-09-21T00:33:49;94918.19;;;8.40;74.55
41078;BME280;26823;42.662;23.352;2022-09-21T00:36:15;94914.38;;;8.31;74.20
41078;BME280;26823;42.662;23.352;2022-09-21T00:38:41;94923.84;;;8.44;74.61
41078;BME280;26823;42.662;23.352;2022-09-21T00:41:07;94925.94;;;8.31;74.89
41078;BME280;26823;42.662;23.352;2022-09-21T00:43:33;94926.41;;;8.18;74.62
41078;BME280;26823;42.662;23.352;2022-09-21T00:46:06;94919.31;;;8.07;75.72
41078;BME280;26823;42.662;23.352;2022-09-21T00:48:35;94922.50;;;7.98;76.31
41078;BME280;26823;42.662;23.352;2022-09-21T00:51:02;94914.78;;;8.12;76.82
41078;BME280;26823;42.662;23.352;2022-09-21T00:53:29;94921.97;;;8.02;76.76
41078;BME280;26823;42.662;23.352;2022-09-21T00:55:56;94920.28;;;7.90;77.27
41078;BME280;26823;42.662;23.352;2022-09-21T00:58:26;94916.97;;;7.73;78.01
41078;BME280;26823;42.662;23.352;2022-09-21T01:00:54;94915.88;;;7.74;78.70
41078;BME280;26823;42.662;23.352;2022-09-21T01:03:20;94914.09;;;7.90;78.14
41078;BME280;26823;42.662;23.352;2022-09-21T01:05:46;94909.94;;;7.72;78.56
41078;BME280;26823;42.662;23.352;2022-09-21T01:08:11;94909.50;;;7.47;80.06
41078;BME280;26823;42.662;23.352;2022-09-21T01:10:59;94913.41;;;7.67;79.79
41078;BME280;26823;42.662;23.352;2022-09-21T01:15:57;94909.09;;;7.66;78.60
41078;BME280;26823;42.662;23.352;2022-09-21T01:21:28;94912.75;;;7.87;78.52
41078;BME280;26823;42.662;23.352;2022-09-21T01:31:34;94904.50;;;8.09;76.45
41078;BME280;26823;42.662;23.352;2022-09-21T01:34:03;94899.25;;;8.25;77.22
41078;BME280;26823;42.662;23.352;2022-09-21T01:36:31;94895.63;;;8.09;77.27
41078;BME280;26823;42.662;23.352;2022-09-21T01:39:02;94895.63;;;8.09;77.47
41078;BME280;26823;42.662;23.352;2022-09-21T01:41:30;94897.84;;;8.17;77.11
41078;BME280;26823;42.662;23.352;2022-09-21T01:43:57;94892.72;;;8.21;77.17
41078;BME280;26823;42.662;23.352;2022-09-21T01:46:27;94890.03;;;8.21;76.54
41078;BME280;26823;42.662;23.352;2022-09-21T01:48:57;94892.69;;;8.15;77.02
41078;BME280;26823;42.662;23.352;2022-09-21T01:51:24;94897.31;;;8.20;76.79
41078;BME280;26823;42.662;23.352;2022-09-21T01:53:51;94898.88;;;8.06;77.39
41078;BME280;26823;42.662;23.352;2022-09-21T01:56:21;94899.56;;;7.91;78.11
41078;BME280;26823;42.662;23.352;2022-09-21T01:58:55;94897.31;;;7.77;79.50
41078;BME280;26823;42.662;23.352;2022-09-21T02:01:25;94886.66;;;7.55;79.97
41078;BME280;26823;42.662;23.352;2022-09-21T02:04:00;94892.78;;;7.45;81.45
41078;BME280;26823;42.662;23.352;2022-09-21T02:06:28;94891.63;;;7.74;80.71
41078;BME280;26823;42.662;23.352;2022-09-21T02:08:54;94887.44;;;7.88;80.23
41078;BME280;26823;42.662;23.352;2022-09-21T02:11:20;94901.28;;;8.07;79.51
41078;BME280;26823;42.662;23.352;2022-09-21T02:13:46;94897.53;;;8.08;78.57
41078;BME280;26823;42.662;23.352;2022-09-21T02:23:52;94912.25;;;7.95;78.94
41078;BME280;26823;42.662;23.352;2022-09-21T02:26:23;94909.06;;;8.04;78.58
41078;BME280;26823;42.662;23.352;2022-09-21T02:39:53;94902.84;;;7.60;78.70
41078;BME280;26823;42.662;23.352;2022-09-21T02:42:11;94908.06;;;7.72;79.40
41078;BME280;26823;42.662;23.352;2022-09-21T02:44:41;94907.69;;;7.58;79.68
41078;BME280;26823;42.662;23.352;2022-09-21T02:47:15;94909.34;;;7.64;79.00
41078;BME280;26823;42.662;23.352;2022-09-21T02:49:44;94912.06;;;7.70;78.82
41078;BME280;26823;42.662;23.352;2022-09-21T02:52:12;94919.53;;;7.62;79.74
41078;BME280;26823;42.662;23.352;2022-09-21T02:54:38;94914.72;;;7.64;78.85
41078;BME280;26823;42.662;23.352;2022-09-21T02:57:05;94910.13;;;7.65;78.66
41078;BME280;26823;42.662;23.352;2022-09-21T02:59:31;94912.16;;;7.80;78.20
41078;BME280;26823;42.662;23.352;2022-09-21T03:01:56;94916.28;;;7.55;78.89
41078;BME280;26823;42.662;23.352;2022-09-21T03:04:22;94909.53;;;7.53;79.48
41078;BME280;26823;42.662;23.352;2022-09-21T03:06:47;94911.91;;;7.49;79.86
41078;BME280;26823;42.662;23.352;2022-09-21T03:09:13;94910.06;;;7.55;79.36
41078;BME280;26823;42.662;23.352;2022-09-21T03:11:38;94907.44;;;7.27;79.64
41078;BME280;26823;42.662;23.352;2022-09-21T03:14:06;94918.78;;;7.34;80.30
41078;BME280;26823;42.662;23.352;2022-09-21T03:16:33;94905.66;;;7.43;79.72
41078;BME280;26823;42.662;23.352;2022-09-21T03:18:59;94913.78;;;7.48;79.91
41078;BME280;26823;42.662;23.352;2022-09-21T03:21:24;94905.72;;;7.48;79.69
41078;BME280;26823;42.662;23.352;2022-09-21T03:23:50;94911.03;;;7.11;81.42
41078;BME280;26823;42.662;23.352;2022-09-21T03:26:22;94907.94;;;7.24;81.16
41078;BME280;26823;42.662;23.352;2022-09-21T03:28:48;94915.34;;;7.12;81.62
41078;BME280;26823;42.662;23.352;2022-09-21T03:31:14;94921.44;;;7.02;82.21
41078;BME280;26823;42.662;23.352;2022-09-21T03:33:39;94912.81;;;7.00;82.28
41078;BME280;26823;42.662;23.352;2022-09-21T03:36:04;94913.81;;;7.21;81.83
41078;BME280;26823;42.662;23.352;2022-09-21T03:38:30;94916.38;;;7.38;81.20
41078;BME280;26823;42.662;23.352;2022-09-21T03:40:55;94913.97;;;7.37;80.26
41078;BME280;26823;42.662;23.352;2022-09-21T03:43:21;94904.84;;;7.10;81.02
41078;BME280;26823;42.662;23.352;2022-09-21T03:45:47;94914.84;;;7.15;81.49
41078;BME280;26823;42.662;23.352;2022-09-21T03:48:12;94917.38;;;7.27;81.06
41078;BME280;26823;42.662;23.352;2022-09-21T03:50:39;94913.03;;;7.26;80.44
41078;BME280;26823;42.662;23.352;2022-09-21T03:53:04;94923.78;;;6.93;82.41
41078;BME280;26823;42.662;23.352;2022-09-21T03:55:30;94919.66;;;6.85;82.59
41078;BME280;26823;42.662;23.352;2022-09-21T03:57:56;94927.09;;;6.78;83.06
41078;BME280;26823;42.662;23.352;2022-09-21T04:00:22;94923.78;;;6.93;82.62
41078;BME280;26823;42.662;23.352;2022-09-21T04:02:47;94917.47;;;7.10;82.00
41078;BME280;26823;42.662;23.352;2022-09-21T04:05:13;94921.38;;;6.97;82.98
41078;BME280;26823;42.662;23.352;2022-09-21T04:07:39;94924.94;;;7.02;82.61
41078;BME280;26823;42.662;23.352;2022-09-21T04:10:05;94922.56;;;7.06;82.36
41078;BME280;26823;42.662;23.352;2022-09-21T04:12:32;94926.53;;;6.76;84.36
41078;BME280;26823;42.662;23.352;2022-09-21T04:14:58;94929.09;;;6.66;85.04
41078;BME280;26823;42.662;23.352;2022-09-21T04:17:24;94931.47;;;6.62;85.24
41078;BME280;26823;42.662;23.352;2022-09-21T04:19:49;94929.94;;;6.66;84.47
41078;BME280;26823;42.662;23.352;2022-09-21T04:22:14;94917.97;;;6.79;85.71
41078;BME280;26823;42.662;23.352;2022-09-21T04:24:39;94925.16;;;6.74;85.91
41078;BME280;26823;42.662;23.352;2022-09-21T04:27:06;94924.94;;;6.75;84.49
41078;BME280;26823;42.662;23.352;2022-09-21T04:29:31;94919.44;;;6.92;83.76
41078;BME280;26823;42.662;23.352;2022-09-21T04:32:03;94922.25;;;7.02;82.78
41078;BME280;26823;42.662;23.352;2022-09-21T04:34:29;94931.38;;;7.01;83.29
41078;BME280;26823;42.662;23.352;2022-09-21T04:36:55;94921.75;;;7.06;82.41
41078;BME280;26823;42.662;23.352;2022-09-21T04:39:20;94922.19;;;6.97;83.30
41078;BME280;26823;42.662;23.352;2022-09-21T04:41:46;94923.88;;;7.04;83.34
41078;BME280;26823;42.662;23.352;2022-09-21T04:44:11;94927.31;;;6.99;83.21
41078;BME280;26823;42.662;23.352;2022-09-21T04:46:37;94924.03;;;7.19;82.95
41078;BME280;26823;42.662;23.352;2022-09-21T04:49:02;94926.25;;;7.27;83.29
41078;BME280;26823;42.662;23.352;2022-09-21T04:51:27;94929.84;;;7.38;83.43
41078;BME280;26823;42.662;23.352;2022-09-21T04:53:53;94932.69;;;7.26;83.27
41078;BME280;26823;42.662;23.352;2022-09-21T04:56:18;94930.09;;;7.37;82.60
41078;BME280;26823;42.662;23.352;2022-09-21T04:58:43;94936.06;;;7.39;82.57
41078;BME280;26823;42.662;23.352;2022-09-21T05:01:09;94937.25;;;7.53;81.32
41078;BME280;26823;42.662;23.352;2022-09-21T05:03:49;94938.75;;;7.39;81.33
41078;BME280;26823;42.662;23.352;2022-09-21T05:06:14;94943.91;;;7.45;81.09
41078;BME280;26823;42.662;23.352;2022-09-21T05:08:40;94941.78;;;7.47;81.20
41078;BME280;26823;42.662;23.352;2022-09-21T05:11:24;94934.44;;;7.38;82.24
41078;BME280;26823;42.662;23.352;2022-09-21T05:13:49;94940.97;;;7.47;80.51
41078;BME280;26823;42.662;23.352;2022-09-21T05:16:15;94943.88;;;7.40;80.44
41078;BME280;26823;42.662;23.352;2022-09-21T05:18:41;94942.84;;;7.46;79.86
41078;BME280;26823;42.662;23.352;2022-09-21T05:21:06;94937.78;;;7.23;79.30
41078;BME280;26823;42.662;23.352;2022-09-21T05:23:31;94940.72;;;7.21;79.48
41078;BME280;26823;42.662;23.352;2022-09-21T05:25:57;94954.19;;;7.21;80.08
41078;BME280;26823;42.662;23.352;2022-09-21T05:28:23;94942.41;;;7.27;79.50
41078;BME280;26823;42.662;23.352;2022-09-21T05:33:32;94942.09;;;7.56;80.38
41078;BME280;26823;42.662;23.352;2022-09-21T05:38:28;94938.19;;;7.69;79.06
41078;BME280;26823;42.662;23.352;2022-09-21T05:40:53;94937.84;;;7.98;77.60
41078;BME280;26823;42.662;23.352;2022-09-21T05:43:19;94940.41;;;8.15;77.85
41078;BME280;26823;42.662;23.352;2022-09-21T05:45:45;94942.06;;;8.21;77.58
41078;BME280;26823;42.662;23.352;2022-09-21T05:48:15;94943.13;;;8.20;76.78
41078;BME280;26823;42.662;23.352;2022-09-21T05:50:49;94941.59;;;8.40;75.93
41078;BME280;26823;42.662;23.352;2022-09-21T05:55:58;94935.53;;;8.60;76.43
41078;BME280;26823;42.662;23.352;2022-09-21T06:01:38;94940.25;;;8.90;75.15
41078;BME280;26823;42.662;23.352;2022-09-21T06:03:53;94947.78;;;8.78;74.06
41078;BME280;26823;42.662;23.352;2022-09-21T06:06:26;94941.84;;;8.86;75.40
41078;BME280;26823;42.662;23.352;2022-09-21T06:08:51;94936.00;;;9.15;74.12
41078;BME280;26823;42.662;23.352;2022-09-21T06:11:17;94946.53;;;9.27;74.22
41078;BME280;26823;42.662;23.352;2022-09-21T06:13:42;94943.84;;;9.32;73.42
41078;BME280;26823;42.662;23.352;2022-09-21T06:16:07;94941.72;;;9.44;72.81
41078;BME280;26823;42.662;23.352;2022-09-21T06:18:36;94949.31;;;9.53;73.49
41078;BME280;26823;42.662;23.352;2022-09-21T06:21:02;94948.47;;;9.62;72.45
41078;BME280;26823;42.662;23.352;2022-09-21T06:23:28;94958.22;;;9.69;72.51
41078;BME280;26823;42.662;23.352;2022-09-21T06:25:53;94954.16;;;9.82;71.93
41078;BME280;26823;42.662;23.352;2022-09-21T06:28:18;94951.22;;;9.88;71.67
41078;BME280;26823;42.662;23.352;2022-09-21T06:30:48;94957.94;;;10.11;70.43
41078;BME280;26823;42.662;23.352;2022-09-21T06:33:14;94948.75;;;10.23;70.69
41078;BME280;26823;42.662;23.352;2022-09-21T06:35:50;94959.00;;;10.31;69.77
41078;BME280;26823;42.662;23.352;2022-09-21T06:38:15;94962.22;;;10.59;69.74
41078;BME280;26823;42.662;23.352;2022-09-21T06:40:40;94959.25;;;10.60;69.83
41078;BME280;26823;42.662;23.352;2022-09-21T06:43:06;94957.59;;;10.65;69.40
41078;BME280;26823;42.662;23.352;2022-09-21T06:45:31;94962.22;;;10.64;69.38
41078;BME280;26823;42.662;23.352;2022-09-21T06:47:57;94957.81;;;10.79;68.43
41078;BME280;26823;42.662;23.352;2022-09-21T06:50:22;94960.22;;;10.85;68.52
41078;BME280;26823;42.662;23.352;2022-09-21T06:52:47;94961.28;;;11.00;68.25
41078;BME280;26823;42.662;23.352;2022-09-21T06:55:13;94962.63;;;11.47;67.20
41078;BME280;26823;42.662;23.352;2022-09-21T06:57:38;94967.31;;;11.76;65.17
41078;BME280;26823;42.662;23.352;2022-09-21T07:00:05;94976.41;;;12.01;64.89
41078;BME280;26823;42.662;23.352;2022-09-21T07:02:31;94977.97;;;12.36;62.81
41078;BME280;26823;42.662;23.352;2022-09-21T07:04:56;94970.06;;;12.40;63.57
41078;BME280;26823;42.662;23.352;2022-09-21T07:07:23;94973.69;;;12.84;61.23
41078;BME280;26823;42.662;23.352;2022-09-21T07:09:52;94977.06;;;12.70;63.34
41078;BME280;26823;42.662;23.352;2022-09-21T07:12:17;94971.38;;;12.96;62.44
41078;BME280;26823;42.662;23.352;2022-09-21T07:14:43;94976.47;;;13.46;59.26
41078;BME280;26823;42.662;23.352;2022-09-21T07:17:12;94982.44;;;13.48;58.87
41078;BME280;26823;42.662;23.352;2022-09-21T07:19:39;94966.72;;;13.21;59.30
41078;BME280;26823;42.662;23.352;2022-09-21T07:22:04;94970.63;;;13.15;58.63
41078;BME280;26823;42.662;23.352;2022-09-21T07:24:29;94970.63;;;13.15;58.61
41078;BME280;26823;42.662;23.352;2022-09-21T07:26:55;94959.31;;;12.83;61.00
41078;BME280;26823;42.662;23.352;2022-09-21T07:29:20;94970.78;;;12.51;63.33
41078;BME280;26823;42.662;23.352;2022-09-21T07:31:45;94969.97;;;12.21;64.97
41078;BME280;26823;42.662;23.352;2022-09-21T07:34:12;94976.31;;;12.11;64.43
41078;BME280;26823;42.662;23.352;2022-09-21T07:36:37;94973.69;;;12.01;66.05
41078;BME280;26823;42.662;23.352;2022-09-21T07:39:02;94977.22;;;12.31;63.93
41078;BME280;26823;42.662;23.352;2022-09-21T07:41:28;94980.13;;;12.39;63.27
41078;BME280;26823;42.662;23.352;2022-09-21T07:43:53;94974.97;;;12.38;62.77
41078;BME280;26823;42.662;23.352;2022-09-21T07:46:19;94970.25;;;12.49;62.70
41078;BME280;26823;42.662;23.352;2022-09-21T07:48:44;94976.31;;;12.40;63.82
41078;BME280;26823;42.662;23.352;2022-09-21T07:51:10;94976.56;;;12.10;65.43
41078;BME280;26823;42.662;23.352;2022-09-21T07:53:37;94970.34;;;12.38;63.99
41078;BME280;26823;42.662;23.352;2022-09-21T07:56:03;94979.78;;;12.17;64.98
41078;BME280;26823;42.662;23.352;2022-09-21T07:58:29;94976.47;;;12.25;65.24
41078;BME280;26823;42.662;23.352;2022-09-21T08:01:13;94978.97;;;12.16;63.76
41078;BME280;26823;42.662;23.352;2022-09-21T08:03:38;94972.38;;;12.28;64.75
41078;BME280;26823;42.662;23.352;2022-09-21T08:06:04;94966.56;;;12.39;63.69
41078;BME280;26823;42.662;23.352;2022-09-21T08:08:29;94977.28;;;12.50;63.16
41078;BME280;26823;42.662;23.352;2022-09-21T08:10:59;94975.34;;;12.55;62.73
41078;BME280;26823;42.662;23.352;2022-09-21T08:13:26;94978.06;;;12.55;61.87
41078;BME280;26823;42.662;23.352;2022-09-21T08:16:00;94971.63;;;12.46;62.48
41078;BME280;26823;42.662;23.352;2022-09-21T08:18:26;94962.75;;;12.40;62.49
41078;BME280;26823;42.662;23.352;2022-09-21T08:20:52;94971.75;;;12.60;60.66
41078;BME280;26823;42.662;23.352;2022-09-21T08:23:18;94973.09;;;12.63;62.15
41078;BME280;26823;42.662;23.352;2022-09-21T08:25:43;94977.97;;;12.90;60.60
41078;BME280;26823;42.662;23.352;2022-09-21T08:28:09;94973.25;;;12.96;60.11
41078;BME280;26823;42.662;23.352;2022-09-21T08:30:35;94968.09;;;13.18;59.45
41078;BME280;26823;42.662;23.352;2022-09-21T08:33:00;94973.03;;;13.16;60.02
41078;BME280;26823;42.662;23.352;2022-09-21T08:35:26;94966.78;;;13.16;59.86
41078;BME280;26823;42.662;23.352;2022-09-21T08:37:52;94966.00;;;13.15;61.78
41078;BME280;26823;42.662;23.352;2022-09-21T08:40:17;94969.88;;;13.28;60.17
41078;BME280;26823;42.662;23.352;2022-09-21T08:45:13;94928.78;;;13.35;59.76
41078;BME280;26823;42.662;23.352;2022-09-21T08:47:44;94953.50;;;13.58;58.45
41078;BME280;26823;42.662;23.352;2022-09-21T08:52:59;94954.13;;;13.30;58.28
41078;BME280;26823;42.662;23.352;2022-09-21T08:55:25;94956.94;;;13.44;57.39
41078;BME280;26823;42.662;23.352;2022-09-21T08:57:51;94951.06;;;13.37;57.79
41078;BME280;26823;42.662;23.352;2022-09-21T09:00:17;94956.00;;;13.30;56.20
41078;BME280;26823;42.662;23.352;2022-09-21T09:05:32;94944.28;;;13.92;55.52
41078;BME280;26823;42.662;23.352;2022-09-21T09:10:38;94936.09;;;14.11;53.66
41078;BME280;26823;42.662;23.352;2022-09-21T09:15:54;94929.44;;;14.17;53.44
41078;BME280;26823;42.662;23.352;2022-09-21T09:18:28;94933.19;;;14.21;53.36
41078;BME280;26823;42.662;23.352;2022-09-21T09:20:57;94922.84;;;13.90;54.65
41078;BME280;26823;42.662;23.352;2022-09-21T09:23:25;94926.59;;;14.08;53.63
41078;BME280;26823;42.662;23.352;2022-09-21T09:25:53;94921.47;;;13.74;56.04
41078;BME280;26823;42.662;23.352;2022-09-21T09:28:23;94922.22;;;13.93;54.80
41078;BME280;26823;42.662;23.352;2022-09-21T09:30:54;94917.88;;;13.78;55.63
41078;BME280;26823;42.662;23.352;2022-09-21T09:33:22;94921.25;;;13.70;55.52
41078;BME280;26823;42.662;23.352;2022-09-21T09:38:36;94919.38;;;13.84;54.14
41078;BME280;26823;42.662;23.352;2022-09-21T09:51:27;94899.94;;;13.77;52.99
41078;BME280;26823;42.662;23.352;2022-09-21T09:53:52;94892.53;;;13.45;53.71
41078;BME280;26823;42.662;23.352;2022-09-21T09:56:22;94894.06;;;13.70;53.16
41078;BME280;26823;42.662;23.352;2022-09-21T09:58:55;94896.53;;;13.85;52.27
41078;BME280;26823;42.662;23.352;2022-09-21T10:01:41;94892.97;;;14.04;52.47
41078;BME280;26823;42.662;23.352;2022-09-21T10:04:11;94887.78;;;14.49;49.77
41078;BME280;26823;42.662;23.352;2022-09-21T10:06:37;94885.09;;;14.77;48.51
41078;BME280;26823;42.662;23.352;2022-09-21T10:11:43;94880.44;;;14.64;49.08
41078;BME280;26823;42.662;23.352;2022-09-21T10:14:09;94872.72;;;14.10;50.50
41078;BME280;26823;42.662;23.352;2022-09-21T10:16:40;94883.22;;;14.17;50.18
41078;BME280;26823;42.662;23.352;2022-09-21T10:19:10;94887.03;;;14.16;49.86
41078;BME280;26823;42.662;23.352;2022-09-21T10:21:38;94873.47;;;14.30;49.89
41078;BME280;26823;42.662;23.352;2022-09-21T10:24:05;94862.59;;;14.58;49.52
41078;BME280;26823;42.662;23.352;2022-09-21T10:26:35;94868.16;;;14.80;48.31
41078;BME280;26823;42.662;23.352;2022-09-21T10:31:52;94861.50;;;15.37;45.91
41078;BME280;26823;42.662;23.352;2022-09-21T10:34:18;94866.66;;;15.61;45.26
41078;BME280;26823;42.662;23.352;2022-09-21T10:36:48;94863.47;;;15.23;47.50
41078;BME280;26823;42.662;23.352;2022-09-21T10:42:03;94851.28;;;15.43;46.76
41078;BME280;26823;42.662;23.352;2022-09-21T10:44:51;94850.19;;;15.89;43.16
41078;BME280;26823;42.662;23.352;2022-09-21T10:47:29;94843.31;;;15.92;43.37
41078;BME280;26823;42.662;23.352;2022-09-21T10:49:59;94843.84;;;16.03;43.33
41078;BME280;26823;42.662;23.352;2022-09-21T10:52:40;94839.88;;;16.09;43.19
41078;BME280;26823;42.662;23.352;2022-09-21T10:55:06;94832.25;;;16.28;42.25
41078;BME280;26823;42.662;23.352;2022-09-21T10:57:39;94845.41;;;16.26;42.02
41078;BME280;26823;42.662;23.352;2022-09-21T11:00:24;94841.53;;;16.19;42.81
41078;BME280;26823;42.662;23.352;2022-09-21T11:05:57;94832.03;;;16.16;41.79
41078;BME280;26823;42.662;23.352;2022-09-21T11:08:44;94821.34;;;15.52;43.04
41078;BME280;26823;42.662;23.352;2022-09-21T11:13:54;94817.53;;;16.38;40.47
41078;BME280;26823;42.662;23.352;2022-09-21T11:27:29;94818.06;;;16.09;41.97
41078;BME280;26823;42.662;23.352;2022-09-21T11:30:12;94821.53;;;16.01;41.89
41078;BME280;26823;42.662;23.352;2022-09-21T11:32:43;94829.09;;;15.81;41.58
41078;BME280;26823;42.662;23.352;2022-09-21T11:40:52;94828.75;;;15.14;43.39
41078;BME280;26823;42.662;23.352;2022-09-21T11:45:01;94817.22;;;15.31;42.50
41078;BME280;26823;42.662;23.352;2022-09-21T11:50:06;94812.34;;;15.06;42.08
41078;BME280;26823;42.662;23.352;2022-09-21T12:01:00;94846.56;;;13.29;53.66
41078;BME280;26823;42.662;23.352;2022-09-21T12:06:56;94851.50;;;13.46;53.84
41078;BME280;26823;42.662;23.352;2022-09-21T12:23:13;94852.09;;;13.05;57.52
41078;BME280;26823;42.662;23.352;2022-09-21T12:25:48;94858.34;;;12.38;57.97
41078;BME280;26823;42.662;23.352;2022-09-21T12:31:38;94862.72;;;12.58;59.28
41078;BME280;26823;42.662;23.352;2022-09-21T12:37:28;94860.53;;;13.23;58.56
41078;BME280;26823;42.662;23.352;2022-09-21T12:39:33;94841.81;;;13.40;57.70
41078;BME280;26823;42.662;23.352;2022-09-21T12:47:40;94840.91;;;13.07;56.63
41078;BME280;26823;42.662;23.352;2022-09-21T12:50:21;94850.84;;;13.16;56.29
41078;BME280;26823;42.662;23.352;2022-09-21T12:52:50;94841.63;;;12.93;57.70
41078;BME280;26823;42.662;23.352;2022-09-21T12:56:05;94852.13;;;12.81;57.26
41078;BME280;26823;42.662;23.352;2022-09-21T12:59:11;94843.81;;;12.53;56.70
41078;BME280;26823;42.662;23.352;2022-09-21T13:09:38;94841.22;;;12.86;56.29
41078;BME280;26823;42.662;23.352;2022-09-21T13:12:14;94824.25;;;12.94;56.72
41078;BME280;26823;42.662;23.352;2022-09-21T13:14:44;94834.25;;;13.18;55.96
41078;BME280;26823;42.662;23.352;2022-09-21T13:17:23;94807.22;;;13.27;55.28
41078;BME280;26823;42.662;23.352;2022-09-21T13:22:30;94824.72;;;13.40;55.53
41078;BME280;26823;42.662;23.352;2022-09-21T13:40:49;94816.09;;;13.51;49.92
41078;BME280;26823;42.662;23.352;2022-09-21T13:43:21;94803.63;;;13.50;51.85
41078;BME280;26823;42.662;23.352;2022-09-21T13:45:51;94811.47;;;13.99;48.26
41078;BME280;26823;42.662;23.352;2022-09-21T13:48:20;94784.72;;;14.20;48.11
41078;BME280;26823;42.662;23.352;2022-09-21T13:50:50;94816.13;;;14.40;47.95
41078;BME280;26823;42.662;23.352;2022-09-21T13:53:22;94817.84;;;14.36;46.64
41078;BME280;26823;42.662;23.352;2022-09-21T13:56:15;94803.03;;;14.28;46.90
41078;BME280;26823;42.662;23.352;2022-09-21T13:58:44;94818.94;;;14.21;46.68
41078;BME280;26823;42.662;23.352;2022-09-21T14:01:22;94804.31;;;14.03;47.92
41078;BME280;26823;42.662;23.352;2022-09-21T14:03:55;94814.47;;;13.83;47.37
41078;BME280;26823;42.662;23.352;2022-09-21T14:06:34;94812.69;;;13.60;47.93
41078;BME280;26823;42.662;23.352;2022-09-21T14:09:07;94818.97;;;13.74;47.72
41078;BME280;26823;42.662;23.352;2022-09-21T14:11:44;94815.94;;;13.62;48.49
41078;BME280;26823;42.662;23.352;2022-09-21T14:14:28;94814.72;;;13.68;50.27
41078;BME280;26823;42.662;23.352;2022-09-21T14:16:59;94804.50;;;13.79;47.88
41078;BME280;26823;42.662;23.352;2022-09-21T14:24:44;94809.94;;;13.79;47.24
41078;BME280;26823;42.662;23.352;2022-09-21T14:27:22;94800.34;;;13.67;47.10
41078;BME280;26823;42.662;23.352;2022-09-21T14:33:04;94803.75;;;13.59;48.94
41078;BME280;26823;42.662;23.352;2022-09-21T14:35:35;94800.72;;;13.61;49.59
41078;BME280;26823;42.662;23.352;2022-09-21T14:40:39;94798.25;;;13.78;49.76
41078;BME280;26823;42.662;23.352;2022-09-21T14:43:15;94794.22;;;13.76;50.35
41078;BME280;26823;42.662;23.352;2022-09-21T14:51:48;94802.34;;;14.09;49.37
41078;BME280;26823;42.662;23.352;2022-09-21T14:59:37;94804.22;;;14.08;47.80
41078;BME280;26823;42.662;23.352;2022-09-21T15:02:20;94800.31;;;14.14;48.48
41078;BME280;26823;42.662;23.352;2022-09-21T15:04:53;94809.69;;;14.22;46.80
41078;BME280;26823;42.662;23.352;2022-09-21T15:07:47;94807.56;;;14.47;49.85
41078;BME280;26823;42.662;23.352;2022-09-21T15:18:43;94812.59;;;14.12;48.38
41078;BME280;26823;42.662;23.352;2022-09-21T15:21:27;94815.53;;;14.15;50.74
41078;BME280;26823;42.662;23.352;2022-09-21T15:23:53;94815.22;;;14.17;46.52
41078;BME280;26823;42.662;23.352;2022-09-21T15:26:22;94827.06;;;13.93;47.28
41078;BME280;26823;42.662;23.352;2022-09-21T15:28:53;94818.00;;;13.84;47.10
41078;BME280;26823;42.662;23.352;2022-09-21T15:31:19;94818.56;;;13.67;47.91
41078;BME280;26823;42.662;23.352;2022-09-21T15:33:46;94819.69;;;13.80;50.48
41078;BME280;26823;42.662;23.352;2022-09-21T15:36:34;94829.88;;;13.88;50.03
41078;BME280;26823;42.662;23.352;2022-09-21T15:39:00;94833.13;;;13.90;47.85
41078;BME280;26823;42.662;23.352;2022-09-21T15:41:41;94838.13;;;13.83;46.34
41078;BME280;26823;42.662;23.352;2022-09-21T15:46:35;94832.81;;;14.06;49.59
41078;BME280;26823;42.662;23.352;2022-09-21T15:49:00;94850.91;;;14.43;49.05
41078;BME280;26823;42.662;23.352;2022-09-21T15:51:33;94814.13;;;14.32;46.04
41078;BME280;26823;42.662;23.352;2022-09-21T15:54:14;94839.59;;;14.50;45.41
41078;BME280;26823;42.662;23.352;2022-09-21T15:56:45;94842.22;;;14.27;45.57
41078;BME280;26823;42.662;23.352;2022-09-21T15:59:15;94846.84;;;14.13;47.64
41078;BME280;26823;42.662;23.352;2022-09-21T16:01:47;94856.38;;;13.96;47.68
41078;BME280;26823;42.662;23.352;2022-09-21T16:04:19;94863.22;;;13.94;48.21
41078;BME280;26823;42.662;23.352;2022-09-21T16:07:06;94864.69;;;13.72;49.51
41078;BME280;26823;42.662;23.352;2022-09-21T16:09:47;94871.03;;;13.48;49.67
41078;BME280;26823;42.662;23.352;2022-09-21T16:14:51;94866.47;;;13.44;52.36
41078;BME280;26823;42.662;23.352;2022-09-21T16:17:28;94867.28;;;13.63;50.64
41078;BME280;26823;42.662;23.352;2022-09-21T16:22:40;94868.91;;;12.83;52.72
41078;BME280;26823;42.662;23.352;2022-09-21T16:25:30;94871.44;;;12.98;52.37
41078;BME280;26823;42.662;23.352;2022-09-21T16:28:25;94877.38;;;13.00;52.86
41078;BME280;26823;42.662;23.352;2022-09-21T16:30:54;94867.13;;;12.97;52.73
41078;BME280;26823;42.662;23.352;2022-09-21T16:38:44;94866.41;;;12.67;55.05